Estación municipal de St. Hilari Sacalm (La Selva, Guilleries)

Consulta los datos en tiempo real de la estación municipal de St. Hilari Sacalm





Hora UTC 07:40
Temperatura 14.4 ºC
Humedad 74.0 %
Presión 1011.8 hPa
Pluja 0.1 mm
Velocidad viento 11.2 km/h
Dirección viento WNW
Radiación solar 533.9 W/m²

Webcam

Datos diarios 2026-05-10



Hora UTC (invierno +1h; verano +2h)
Temperatura (ºC) Humedad (%) Presión (hPa) Velocidad viento (km/h) Precipitación (mm) Radiación solar (W/m²)
Hora UTC Aire Humedad Presión Vel. Dir. Vel. Max Dir. Intent. máx 5 min. Rad. Sol.
00:05 9.8 97.4 1013.0 8.3 WNW 8.3 WNW 0.0 0.1
00:10 9.7 97.3 1012.9 5.4 NW 14.2 NW 0.0 0.1
00:15 9.6 97.3 1012.9 7.1 NW 16.9 NW 0.0 0.1
00:20 9.5 97.3 1012.8 5.3 NW 14.2 NNW 0.0 0.1
00:25 9.4 97.4 1012.7 2.4 WNW 14.2 NNW 0.0 0.1
00:30 9.4 97.4 1012.6 0.8 NW 11.5 W 0.0 0.1
00:35 9.2 97.4 1012.6 1.4 NW 11.5 NW 0.0 0.1
00:40 9.2 97.5 1012.4 3.0 WNW 14.2 W 0.0 0.1
00:45 9.1 97.5 1012.4 3.2 WNW 11.5 W 0.0 0.1
00:50 9.0 97.4 1012.4 1.4 WNW 11.5 W 0.0 0.1
00:55 9.0 97.5 1012.3 0.2 NW 6.1 WNW 0.0 0.1
01:00 8.9 97.5 1012.2 0.1 W 6.1 W 0.0 0.1
01:05 8.8 97.6 1012.2 0.0 NNE 0.0 W 0.0 0.1
01:10 8.7 97.5 1012.2 0.0 NNE 0.0 W 0.0 0.1
01:15 8.6 97.6 1012.2 0.0 NNE 0.0 WNW 0.0 0.1
01:20 8.6 97.6 1012.2 0.0 WSW 3.4 W 0.0 0.1
01:25 8.5 97.7 1012.1 0.0 NNE 0.0 WSW 0.0 0.1
01:30 8.5 97.7 1012.1 0.0 NNE 0.0 SW 0.0 0.1
01:35 8.4 97.7 1012.0 0.2 WSW 8.8 W 0.0 0.1
01:40 8.5 97.8 1012.0 0.7 WSW 8.8 W 0.0 0.1
01:45 8.5 97.8 1012.0 0.0 NNE 0.0 W 0.0 0.1
01:50 8.4 97.7 1012.0 0.0 NNE 0.0 W 0.0 0.1
01:55 8.4 97.8 1012.0 0.0 NNE 0.0 SW 0.0 0.1
02:00 8.5 98.1 1011.9 0.0 NNE 0.0 SW 0.0 0.1
02:05 8.5 97.9 1011.9 0.0 NNE 0.0 SW 0.0 0.1
02:10 8.5 97.9 1011.9 0.4 SSW 11.5 SW 0.0 0.1
02:15 8.6 98.1 1011.8 1.9 SW 14.2 SW 0.0 0.1
02:20 8.9 98.2 1011.7 8.0 WSW 25.0 WSW 0.0 0.1
02:25 9.0 98.0 1011.6 7.1 WSW 22.3 W 0.0 0.1
02:30 9.0 97.8 1011.6 8.2 WSW 22.3 WNW 0.0 0.1
02:35 9.1 97.7 1011.6 9.3 WSW 22.3 W 0.0 0.1
02:40 9.1 97.6 1011.6 8.8 WSW 27.7 SW 0.0 0.1
02:45 9.3 97.5 1011.6 10.3 WSW 27.7 SSW 0.0 0.1
02:50 9.3 97.2 1011.6 12.8 WSW 30.4 WSW 0.0 0.1
02:55 9.3 97.0 1011.6 12.0 W 27.7 WNW 0.0 0.1
03:00 9.3 96.7 1011.5 9.5 W 25.0 WSW 0.0 0.1
03:05 9.2 96.5 1011.5 9.4 W 27.7 WNW 0.0 0.1
03:10 9.1 96.5 1011.5 10.6 W 30.4 W 0.0 0.1
03:15 9.1 96.4 1011.4 10.0 W 25.0 WSW 0.0 0.1
03:20 9.1 96.4 1011.4 10.1 W 30.4 WSW 0.0 0.1
03:25 9.0 96.4 1011.4 11.6 W 33.1 W 0.0 0.1
03:30 9.0 96.4 1011.3 11.8 W 27.7 W 0.1 0.1
03:35 9.0 96.5 1011.3 14.9 W 30.4 W 0.0 0.1
03:40 9.1 96.4 1011.3 12.1 W 30.4 W 0.0 0.1
03:45 9.1 96.4 1011.3 10.9 W 33.1 WNW 0.0 0.1
03:50 9.1 96.3 1011.3 11.5 W 27.7 WNW 0.0 0.1
03:55 9.1 96.3 1011.3 9.3 W 22.3 WSW 0.0 0.1
04:00 9.1 96.2 1011.3 11.5 WNW 25.0 W 0.0 0.1
04:05 9.1 96.2 1011.3 10.9 WNW 27.7 NW 0.0 0.1
04:10 9.1 96.1 1011.3 12.4 W 27.7 WSW 0.0 0.1
04:15 9.0 96.1 1011.3 7.9 W 25.0 SW 0.0 0.1
04:20 9.0 96.1 1011.4 8.2 W 22.3 WSW 0.0 0.3
04:25 9.0 96.2 1011.4 7.1 W 22.3 SSW 0.0 0.7
04:30 9.0 96.2 1011.4 11.2 W 27.7 WSW 0.0 1.5
04:35 9.0 96.4 1011.4 9.3 W 22.3 NW 0.0 2.7
04:40 9.0 96.3 1011.4 7.9 W 25.0 WNW 0.0 4.5
04:45 9.0 96.3 1011.4 4.7 WNW 22.3 WNW 0.0 6.9
04:50 9.0 96.2 1011.3 6.5 W 16.9 W 0.0 9.1
04:55 9.0 96.2 1011.3 5.5 W 16.9 W 0.0 11.7
05:00 9.0 96.2 1011.3 7.1 W 30.4 WNW 0.0 14.5
05:05 9.0 96.2 1011.4 7.6 WSW 16.9 W 0.0 34.9
05:10 9.1 96.2 1011.3 6.9 W 19.6 WNW 0.0 75.8
05:15 9.3 95.7 1011.3 4.8 WNW 11.5 NW 0.0 88.2
05:20 9.7 94.7 1011.3 5.6 NW 14.2 NW 0.0 101.0
05:25 10.0 93.7 1011.4 5.8 NW 14.2 WNW 0.0 113.8
05:30 10.2 93.0 1011.4 4.5 NW 11.5 NNW 0.0 115.7
05:35 10.4 92.1 1011.4 5.5 NW 14.2 WNW 0.0 113.9
05:40 10.6 91.2 1011.4 1.7 NW 11.5 W 0.0 153.8
05:45 10.8 90.3 1011.4 3.5 NW 11.5 WNW 0.0 168.5
05:50 11.1 89.3 1011.4 2.4 WNW 8.8 WSW 0.0 183.1
05:55 11.6 88.1 1011.4 0.0 NNE 0.0 NNW 0.0 198.1
06:00 12.2 85.9 1011.4 1.6 WNW 8.8 WNW 0.0 214.0
06:05 12.2 83.3 1011.4 6.3 WNW 16.9 NW 0.0 229.9
06:10 12.1 82.9 1011.4 8.9 WNW 25.0 W 0.0 246.3
06:15 12.0 83.0 1011.4 11.1 WNW 30.4 WSW 0.0 261.3
06:20 11.9 83.4 1011.5 9.7 WNW 25.0 SW 0.0 277.0
06:25 12.1 83.2 1011.5 11.4 WNW 22.3 W 0.0 293.4
06:30 12.2 83.0 1011.5 11.0 WNW 22.3 WNW 0.0 309.8
06:35 12.3 82.5 1011.5 9.1 WNW 27.7 NW 0.0 326.1
06:40 12.5 81.4 1011.5 10.9 WNW 30.4 W 0.0 342.5
06:45 12.5 80.7 1011.5 15.5 WNW 33.1 NW 0.0 358.6
06:50 12.4 81.0 1011.6 15.4 WNW 30.4 NW 0.0 375.0
06:55 12.4 80.5 1011.5 16.0 WNW 30.4 NW 0.0 391.1
07:00 12.6 80.1 1011.6 13.8 WNW 27.7 WNW 0.0 407.6
07:05 12.8 79.8 1011.6 14.0 WNW 27.7 WNW 0.0 423.4
07:10 12.8 79.2 1011.6 15.2 WNW 33.1 NW 0.0 439.2
07:15 13.2 78.5 1011.6 13.6 WNW 25.0 W 0.0 455.2
07:20 13.2 77.7 1011.6 13.5 WNW 25.0 WNW 0.0 471.0
07:25 13.7 76.8 1011.7 12.1 WNW 25.0 WNW 0.0 486.6
07:30 14.1 75.2 1011.7 9.3 WNW 25.0 WSW 0.0 502.7
07:35 14.3 74.1 1011.8 11.7 WNW 25.0 SW 0.0 518.4
07:40 14.4 74.0 1011.8 11.2 WNW 25.0 WNW 0.0 533.9
Máxima 14.4 98.2 1013.0 16.0 WNW 33.1 NW 0.1 533.9
Mínima 8.4 74.0 1011.3
Total 0.1